sensor_id;sensor_type;location;lat;lon;timestamp;P1;durP1;ratioP1;P2;durP2;ratioP2
50851;SDS011;43953;45.508;-122.806;2022-10-04T00:00:58;8.70;;;6.95;;
50851;SDS011;43953;45.508;-122.806;2022-10-04T00:01:47;11.13;;;7.30;;
50851;SDS011;43953;45.508;-122.806;2022-10-04T00:02:29;9.27;;;7.50;;
50851;SDS011;43953;45.508;-122.806;2022-10-04T00:03:06;8.30;;;7.05;;
50851;SDS011;43953;45.508;-122.806;2022-10-04T00:04:58;7.95;;;7.07;;
50851;SDS011;43953;45.508;-122.806;2022-10-04T00:05:34;7.90;;;6.88;;
50851;SDS011;43953;45.508;-122.806;2022-10-04T00:06:11;9.30;;;7.43;;
50851;SDS011;43953;45.508;-122.806;2022-10-04T00:07:44;7.80;;;6.88;;
50851;SDS011;43953;45.508;-122.806;2022-10-04T00:09:19;8.00;;;6.93;;
50851;SDS011;43953;45.508;-122.806;2022-10-04T00:09:56;7.95;;;7.00;;
50851;SDS011;43953;45.508;-122.806;2022-10-04T00:10:32;7.60;;;6.85;;
50851;SDS011;43953;45.508;-122.806;2022-10-04T00:11:16;9.07;;;7.30;;
50851;SDS011;43953;45.508;-122.806;2022-10-04T00:11:54;9.35;;;6.90;;
50851;SDS011;43953;45.508;-122.806;2022-10-04T00:12:30;7.53;;;6.80;;
50851;SDS011;43953;45.508;-122.806;2022-10-04T00:13:13;10.73;;;7.50;;
50851;SDS011;43953;45.508;-122.806;2022-10-04T00:13:55;8.68;;;6.55;;
50851;SDS011;43953;45.508;-122.806;2022-10-04T00:14:34;7.70;;;6.95;;
50851;SDS011;43953;45.508;-122.806;2022-10-04T00:15:23;8.50;;;7.18;;
50851;SDS011;43953;45.508;-122.806;2022-10-04T00:15:57;7.90;;;7.20;;
50851;SDS011;43953;45.508;-122.806;2022-10-04T00:16:30;8.75;;;7.05;;
50851;SDS011;43953;45.508;-122.806;2022-10-04T00:17:10;8.13;;;6.88;;
50851;SDS011;43953;45.508;-122.806;2022-10-04T00:17:44;8.18;;;6.90;;
50851;SDS011;43953;45.508;-122.806;2022-10-04T00:18:30;9.20;;;6.93;;
50851;SDS011;43953;45.508;-122.806;2022-10-04T00:19:45;8.73;;;7.07;;
50851;SDS011;43953;45.508;-122.806;2022-10-04T00:21:22;11.25;;;7.40;;
50851;SDS011;43953;45.508;-122.806;2022-10-04T00:22:27;8.35;;;7.13;;
50851;SDS011;43953;45.508;-122.806;2022-10-04T00:24:59;7.47;;;6.78;;
50851;SDS011;43953;45.508;-122.806;2022-10-04T00:25:43;9.48;;;7.00;;
50851;SDS011;43953;45.508;-122.806;2022-10-04T00:27:09;11.35;;;7.28;;
50851;SDS011;43953;45.508;-122.806;2022-10-04T00:28:50;10.05;;;7.78;;
50851;SDS011;43953;45.508;-122.806;2022-10-04T00:30:35;13.52;;;7.75;;
50851;SDS011;43953;45.508;-122.806;2022-10-04T00:33:15;7.72;;;7.03;;
50851;SDS011;43953;45.508;-122.806;2022-10-04T00:34:44;7.95;;;7.15;;
50851;SDS011;43953;45.508;-122.806;2022-10-04T00:35:57;11.00;;;7.00;;
50851;SDS011;43953;45.508;-122.806;2022-10-04T00:36:39;8.85;;;7.45;;
50851;SDS011;43953;45.508;-122.806;2022-10-04T00:37:19;9.23;;;7.03;;
50851;SDS011;43953;45.508;-122.806;2022-10-04T00:37:53;7.72;;;7.00;;
50851;SDS011;43953;45.508;-122.806;2022-10-04T00:38:28;8.55;;;6.93;;
50851;SDS011;43953;45.508;-122.806;2022-10-04T00:39:38;8.00;;;7.07;;
50851;SDS011;43953;45.508;-122.806;2022-10-04T00:40:14;8.00;;;7.18;;
50851;SDS011;43953;45.508;-122.806;2022-10-04T00:40:54;7.90;;;7.10;;
50851;SDS011;43953;45.508;-122.806;2022-10-04T00:42:31;8.20;;;7.43;;
50851;SDS011;43953;45.508;-122.806;2022-10-04T00:43:19;7.50;;;6.80;;
50851;SDS011;43953;45.508;-122.806;2022-10-04T00:43:58;7.93;;;6.95;;
50851;SDS011;43953;45.508;-122.806;2022-10-04T00:46:12;7.47;;;6.78;;
50851;SDS011;43953;45.508;-122.806;2022-10-04T00:46:52;8.00;;;7.10;;
50851;SDS011;43953;45.508;-122.806;2022-10-04T00:47:29;7.78;;;7.10;;
50851;SDS011;43953;45.508;-122.806;2022-10-04T00:48:22;8.05;;;7.22;;
50851;SDS011;43953;45.508;-122.806;2022-10-04T00:49:08;13.90;;;7.93;;
50851;SDS011;43953;45.508;-122.806;2022-10-04T00:49:43;11.68;;;7.00;;
50851;SDS011;43953;45.508;-122.806;2022-10-04T00:50:20;9.50;;;6.80;;
50851;SDS011;43953;45.508;-122.806;2022-10-04T00:51:06;13.20;;;7.53;;
50851;SDS011;43953;45.508;-122.806;2022-10-04T00:52:00;8.48;;;6.85;;
50851;SDS011;43953;45.508;-122.806;2022-10-04T00:52:40;7.75;;;7.00;;
50851;SDS011;43953;45.508;-122.806;2022-10-04T00:53:43;10.40;;;6.85;;
50851;SDS011;43953;45.508;-122.806;2022-10-04T00:54:24;10.75;;;7.30;;
50851;SDS011;43953;45.508;-122.806;2022-10-04T00:55:00;9.32;;;7.53;;
50851;SDS011;43953;45.508;-122.806;2022-10-04T00:55:37;9.18;;;6.95;;
50851;SDS011;43953;45.508;-122.806;2022-10-04T00:56:29;9.57;;;6.93;;
50851;SDS011;43953;45.508;-122.806;2022-10-04T00:57:23;11.50;;;7.25;;
50851;SDS011;43953;45.508;-122.806;2022-10-04T00:58:19;9.05;;;6.60;;
50851;SDS011;43953;45.508;-122.806;2022-10-04T01:00:17;7.53;;;6.57;;
50851;SDS011;43953;45.508;-122.806;2022-10-04T01:00:51;7.63;;;6.82;;
50851;SDS011;43953;45.508;-122.806;2022-10-04T01:01:25;7.70;;;6.82;;
50851;SDS011;43953;45.508;-122.806;2022-10-04T01:02:04;8.38;;;6.78;;
50851;SDS011;43953;45.508;-122.806;2022-10-04T01:03:00;12.13;;;6.50;;
50851;SDS011;43953;45.508;-122.806;2022-10-04T01:03:42;9.13;;;7.13;;
50851;SDS011;43953;45.508;-122.806;2022-10-04T01:04:50;7.80;;;6.90;;
50851;SDS011;43953;45.508;-122.806;2022-10-04T01:05:24;7.30;;;6.60;;
50851;SDS011;43953;45.508;-122.806;2022-10-04T01:06:02;9.35;;;6.88;;
50851;SDS011;43953;45.508;-122.806;2022-10-04T01:06:36;11.27;;;6.75;;
50851;SDS011;43953;45.508;-122.806;2022-10-04T01:07:10;7.82;;;6.93;;
50851;SDS011;43953;45.508;-122.806;2022-10-04T01:07:48;8.45;;;7.00;;
50851;SDS011;43953;45.508;-122.806;2022-10-04T01:08:29;9.15;;;6.75;;
50851;SDS011;43953;45.508;-122.806;2022-10-04T01:09:07;8.07;;;6.10;;
50851;SDS011;43953;45.508;-122.806;2022-10-04T01:09:45;7.53;;;6.80;;
50851;SDS011;43953;45.508;-122.806;2022-10-04T01:10:33;8.38;;;7.28;;
50851;SDS011;43953;45.508;-122.806;2022-10-04T01:11:56;7.10;;;6.35;;
50851;SDS011;43953;45.508;-122.806;2022-10-04T01:14:09;9.52;;;7.10;;
50851;SDS011;43953;45.508;-122.806;2022-10-04T01:15:04;7.53;;;6.75;;
50851;SDS011;43953;45.508;-122.806;2022-10-04T01:15:59;7.88;;;7.18;;
50851;SDS011;43953;45.508;-122.806;2022-10-04T01:16:45;10.30;;;7.13;;
50851;SDS011;43953;45.508;-122.806;2022-10-04T01:17:17;7.30;;;6.60;;
50851;SDS011;43953;45.508;-122.806;2022-10-04T01:18:09;7.95;;;7.15;;
50851;SDS011;43953;45.508;-122.806;2022-10-04T01:18:44;7.70;;;6.90;;
50851;SDS011;43953;45.508;-122.806;2022-10-04T01:19:54;9.75;;;7.38;;
50851;SDS011;43953;45.508;-122.806;2022-10-04T01:20:32;8.73;;;7.32;;
50851;SDS011;43953;45.508;-122.806;2022-10-04T01:21:28;9.32;;;7.28;;
50851;SDS011;43953;45.508;-122.806;2022-10-04T01:22:39;9.43;;;7.60;;
50851;SDS011;43953;45.508;-122.806;2022-10-04T01:24:15;9.55;;;6.75;;
50851;SDS011;43953;45.508;-122.806;2022-10-04T01:24:51;9.93;;;7.38;;
50851;SDS011;43953;45.508;-122.806;2022-10-04T01:25:42;9.70;;;7.13;;
50851;SDS011;43953;45.508;-122.806;2022-10-04T01:27:24;8.45;;;7.38;;
50851;SDS011;43953;45.508;-122.806;2022-10-04T01:28:16;8.50;;;7.53;;
50851;SDS011;43953;45.508;-122.806;2022-10-04T01:28:48;10.50;;;7.57;;
50851;SDS011;43953;45.508;-122.806;2022-10-04T01:29:24;10.52;;;6.88;;
50851;SDS011;43953;45.508;-122.806;2022-10-04T01:29:58;10.27;;;6.82;;
50851;SDS011;43953;45.508;-122.806;2022-10-04T01:30:31;8.23;;;7.03;;
50851;SDS011;43953;45.508;-122.806;2022-10-04T01:31:02;8.68;;;7.25;;
50851;SDS011;43953;45.508;-122.806;2022-10-04T01:31:42;12.13;;;7.78;;
50851;SDS011;43953;45.508;-122.806;2022-10-04T01:32:14;8.60;;;7.35;;
50851;SDS011;43953;45.508;-122.806;2022-10-04T01:32:47;8.35;;;7.13;;
50851;SDS011;43953;45.508;-122.806;2022-10-04T01:33:18;8.88;;;7.13;;
50851;SDS011;43953;45.508;-122.806;2022-10-04T01:33:50;9.85;;;6.78;;
50851;SDS011;43953;45.508;-122.806;2022-10-04T01:34:23;9.32;;;7.47;;
50851;SDS011;43953;45.508;-122.806;2022-10-04T01:34:57;11.63;;;7.20;;
50851;SDS011;43953;45.508;-122.806;2022-10-04T01:35:29;10.07;;;7.43;;
50851;SDS011;43953;45.508;-122.806;2022-10-04T01:36:01;9.15;;;7.30;;
50851;SDS011;43953;45.508;-122.806;2022-10-04T01:36:33;9.60;;;7.60;;
50851;SDS011;43953;45.508;-122.806;2022-10-04T01:37:06;9.88;;;6.80;;
50851;SDS011;43953;45.508;-122.806;2022-10-04T01:37:38;10.10;;;7.28;;
50851;SDS011;43953;45.508;-122.806;2022-10-04T01:38:10;10.43;;;7.50;;
50851;SDS011;43953;45.508;-122.806;2022-10-04T01:38:42;10.07;;;7.18;;
50851;SDS011;43953;45.508;-122.806;2022-10-04T01:39:15;10.95;;;7.18;;
50851;SDS011;43953;45.508;-122.806;2022-10-04T01:39:48;7.75;;;7.05;;
50851;SDS011;43953;45.508;-122.806;2022-10-04T01:40:20;8.02;;;6.82;;
50851;SDS011;43953;45.508;-122.806;2022-10-04T01:40:53;10.68;;;7.30;;
50851;SDS011;43953;45.508;-122.806;2022-10-04T01:41:36;10.27;;;7.40;;
50851;SDS011;43953;45.508;-122.806;2022-10-04T01:42:52;10.43;;;7.40;;
50851;SDS011;43953;45.508;-122.806;2022-10-04T01:43:31;9.88;;;7.03;;
50851;SDS011;43953;45.508;-122.806;2022-10-04T01:44:08;14.18;;;8.07;;
50851;SDS011;43953;45.508;-122.806;2022-10-04T01:45:24;11.63;;;7.35;;
50851;SDS011;43953;45.508;-122.806;2022-10-04T01:46:11;13.63;;;7.80;;
50851;SDS011;43953;45.508;-122.806;2022-10-04T01:46:49;12.18;;;7.72;;
50851;SDS011;43953;45.508;-122.806;2022-10-04T01:48:31;11.18;;;8.35;;
50851;SDS011;43953;45.508;-122.806;2022-10-04T01:49:10;9.93;;;7.70;;
50851;SDS011;43953;45.508;-122.806;2022-10-04T01:49:46;10.40;;;7.43;;
50851;SDS011;43953;45.508;-122.806;2022-10-04T01:50:27;8.30;;;7.50;;
50851;SDS011;43953;45.508;-122.806;2022-10-04T01:51:06;11.65;;;7.68;;
50851;SDS011;43953;45.508;-122.806;2022-10-04T01:52:07;9.70;;;7.45;;
50851;SDS011;43953;45.508;-122.806;2022-10-04T01:52:55;10.55;;;7.70;;
50851;SDS011;43953;45.508;-122.806;2022-10-04T01:53:42;11.80;;;7.68;;
50851;SDS011;43953;45.508;-122.806;2022-10-04T01:54:33;11.35;;;8.05;;
50851;SDS011;43953;45.508;-122.806;2022-10-04T01:55:13;10.10;;;7.40;;
50851;SDS011;43953;45.508;-122.806;2022-10-04T01:56:26;10.68;;;7.55;;
50851;SDS011;43953;45.508;-122.806;2022-10-04T01:57:11;11.95;;;7.97;;
50851;SDS011;43953;45.508;-122.806;2022-10-04T01:58:13;8.85;;;7.95;;
50851;SDS011;43953;45.508;-122.806;2022-10-04T01:58:48;12.02;;;7.82;;
50851;SDS011;43953;45.508;-122.806;2022-10-04T01:59:25;13.55;;;8.05;;
50851;SDS011;43953;45.508;-122.806;2022-10-04T02:00:07;13.68;;;9.20;;
50851;SDS011;43953;45.508;-122.806;2022-10-04T02:00:44;13.73;;;7.97;;
50851;SDS011;43953;45.508;-122.806;2022-10-04T02:02:20;11.50;;;8.18;;
50851;SDS011;43953;45.508;-122.806;2022-10-04T02:03:15;14.93;;;8.23;;
50851;SDS011;43953;45.508;-122.806;2022-10-04T02:04:01;16.45;;;8.15;;
50851;SDS011;43953;45.508;-122.806;2022-10-04T02:04:55;12.90;;;8.32;;
50851;SDS011;43953;45.508;-122.806;2022-10-04T02:06:23;14.32;;;8.27;;
50851;SDS011;43953;45.508;-122.806;2022-10-04T02:06:55;12.13;;;8.07;;
50851;SDS011;43953;45.508;-122.806;2022-10-04T02:07:30;13.90;;;8.05;;
50851;SDS011;43953;45.508;-122.806;2022-10-04T02:08:04;13.43;;;8.60;;
50851;SDS011;43953;45.508;-122.806;2022-10-04T02:08:43;15.20;;;8.07;;
50851;SDS011;43953;45.508;-122.806;2022-10-04T02:09:21;11.32;;;8.20;;
50851;SDS011;43953;45.508;-122.806;2022-10-04T02:09:57;11.25;;;7.80;;
50851;SDS011;43953;45.508;-122.806;2022-10-04T02:10:36;13.23;;;8.38;;
50851;SDS011;43953;45.508;-122.806;2022-10-04T02:11:10;15.05;;;8.25;;
50851;SDS011;43953;45.508;-122.806;2022-10-04T02:12:25;11.10;;;8.30;;
50851;SDS011;43953;45.508;-122.806;2022-10-04T02:13:01;12.38;;;8.52;;
50851;SDS011;43953;45.508;-122.806;2022-10-04T02:13:37;12.95;;;8.68;;
50851;SDS011;43953;45.508;-122.806;2022-10-04T02:14:14;15.95;;;8.52;;
50851;SDS011;43953;45.508;-122.806;2022-10-04T02:14:49;13.82;;;8.20;;
50851;SDS011;43953;45.508;-122.806;2022-10-04T02:15:23;13.85;;;8.38;;
50851;SDS011;43953;45.508;-122.806;2022-10-04T02:15:56;14.27;;;8.10;;
50851;SDS011;43953;45.508;-122.806;2022-10-04T02:16:30;13.95;;;8.13;;
50851;SDS011;43953;45.508;-122.806;2022-10-04T02:17:08;10.13;;;8.07;;
50851;SDS011;43953;45.508;-122.806;2022-10-04T02:17:42;11.55;;;7.72;;
50851;SDS011;43953;45.508;-122.806;2022-10-04T02:18:15;14.82;;;7.93;;
50851;SDS011;43953;45.508;-122.806;2022-10-04T02:18:50;11.52;;;7.75;;
50851;SDS011;43953;45.508;-122.806;2022-10-04T02:19:25;15.00;;;7.75;;
50851;SDS011;43953;45.508;-122.806;2022-10-04T02:20:23;12.55;;;8.18;;
50851;SDS011;43953;45.508;-122.806;2022-10-04T02:20:57;13.20;;;8.18;;
50851;SDS011;43953;45.508;-122.806;2022-10-04T02:21:30;9.25;;;7.53;;
50851;SDS011;43953;45.508;-122.806;2022-10-04T02:22:03;12.18;;;8.02;;
50851;SDS011;43953;45.508;-122.806;2022-10-04T02:22:37;14.35;;;8.07;;
50851;SDS011;43953;45.508;-122.806;2022-10-04T02:23:09;11.00;;;7.50;;
50851;SDS011;43953;45.508;-122.806;2022-10-04T02:23:43;13.65;;;7.80;;
50851;SDS011;43953;45.508;-122.806;2022-10-04T02:24:17;14.73;;;8.35;;
50851;SDS011;43953;45.508;-122.806;2022-10-04T02:24:51;12.25;;;7.43;;
50851;SDS011;43953;45.508;-122.806;2022-10-04T02:25:25;13.60;;;8.27;;
50851;SDS011;43953;45.508;-122.806;2022-10-04T02:25:57;13.95;;;7.40;;
50851;SDS011;43953;45.508;-122.806;2022-10-04T02:26:29;12.43;;;8.18;;
50851;SDS011;43953;45.508;-122.806;2022-10-04T02:27:01;11.43;;;7.82;;
50851;SDS011;43953;45.508;-122.806;2022-10-04T02:27:33;12.05;;;7.60;;
50851;SDS011;43953;45.508;-122.806;2022-10-04T02:28:08;10.45;;;7.60;;
50851;SDS011;43953;45.508;-122.806;2022-10-04T02:28:41;10.60;;;7.65;;
50851;SDS011;43953;45.508;-122.806;2022-10-04T02:29:13;12.02;;;6.95;;
50851;SDS011;43953;45.508;-122.806;2022-10-04T02:29:44;12.13;;;6.75;;
50851;SDS011;43953;45.508;-122.806;2022-10-04T02:30:16;10.27;;;6.70;;
50851;SDS011;43953;45.508;-122.806;2022-10-04T02:30:48;13.45;;;7.10;;
50851;SDS011;43953;45.508;-122.806;2022-10-04T02:31:40;9.13;;;6.65;;
50851;SDS011;43953;45.508;-122.806;2022-10-04T02:32:31;11.52;;;6.90;;
50851;SDS011;43953;45.508;-122.806;2022-10-04T02:33:21;11.27;;;7.03;;
50851;SDS011;43953;45.508;-122.806;2022-10-04T02:33:54;9.68;;;6.05;;
50851;SDS011;43953;45.508;-122.806;2022-10-04T02:34:28;10.20;;;6.95;;
50851;SDS011;43953;45.508;-122.806;2022-10-04T02:35:01;9.90;;;6.30;;
50851;SDS011;43953;45.508;-122.806;2022-10-04T02:35:35;12.55;;;6.50;;
50851;SDS011;43953;45.508;-122.806;2022-10-04T02:36:13;12.15;;;6.30;;
50851;SDS011;43953;45.508;-122.806;2022-10-04T02:36:47;7.82;;;6.25;;
50851;SDS011;43953;45.508;-122.806;2022-10-04T02:37:22;10.85;;;6.38;;
50851;SDS011;43953;45.508;-122.806;2022-10-04T02:38:07;10.40;;;6.85;;
50851;SDS011;43953;45.508;-122.806;2022-10-04T02:39:12;10.45;;;6.20;;
50851;SDS011;43953;45.508;-122.806;2022-10-04T02:39:47;13.68;;;7.30;;
50851;SDS011;43953;45.508;-122.806;2022-10-04T02:40:28;10.75;;;7.43;;
50851;SDS011;43953;45.508;-122.806;2022-10-04T02:41:08;10.38;;;8.15;;
50851;SDS011;43953;45.508;-122.806;2022-10-04T02:41:55;11.70;;;7.60;;
50851;SDS011;43953;45.508;-122.806;2022-10-04T02:42:49;13.52;;;7.22;;
50851;SDS011;43953;45.508;-122.806;2022-10-04T02:44:32;11.32;;;6.90;;
50851;SDS011;43953;45.508;-122.806;2022-10-04T02:47:14;7.63;;;6.82;;
50851;SDS011;43953;45.508;-122.806;2022-10-04T02:47:51;13.20;;;6.75;;
50851;SDS011;43953;45.508;-122.806;2022-10-04T02:49:12;12.05;;;6.68;;
50851;SDS011;43953;45.508;-122.806;2022-10-04T02:50:08;8.50;;;6.03;;
50851;SDS011;43953;45.508;-122.806;2022-10-04T02:50:54;9.35;;;7.10;;
50851;SDS011;43953;45.508;-122.806;2022-10-04T02:52:49;9.23;;;6.53;;
50851;SDS011;43953;45.508;-122.806;2022-10-04T02:55:13;7.47;;;6.20;;
50851;SDS011;43953;45.508;-122.806;2022-10-04T02:55:53;9.70;;;6.43;;
50851;SDS011;43953;45.508;-122.806;2022-10-04T02:56:26;8.05;;;6.30;;
50851;SDS011;43953;45.508;-122.806;2022-10-04T02:56:58;10.95;;;6.53;;
50851;SDS011;43953;45.508;-122.806;2022-10-04T02:57:31;9.23;;;6.40;;
50851;SDS011;43953;45.508;-122.806;2022-10-04T02:58:07;9.95;;;6.55;;
50851;SDS011;43953;45.508;-122.806;2022-10-04T02:58:41;8.93;;;6.85;;
50851;SDS011;43953;45.508;-122.806;2022-10-04T02:59:14;9.77;;;7.03;;
50851;SDS011;43953;45.508;-122.806;2022-10-04T02:59:46;10.48;;;6.95;;
50851;SDS011;43953;45.508;-122.806;2022-10-04T03:00:23;10.30;;;6.75;;
50851;SDS011;43953;45.508;-122.806;2022-10-04T03:00:58;13.48;;;7.00;;
50851;SDS011;43953;45.508;-122.806;2022-10-04T03:02:19;8.40;;;6.57;;
50851;SDS011;43953;45.508;-122.806;2022-10-04T03:02:29;15.68;;;7.10;;
50851;SDS011;43953;45.508;-122.806;2022-10-04T03:03:46;9.52;;;7.20;;
50851;SDS011;43953;45.508;-122.806;2022-10-04T03:04:19;10.07;;;7.05;;
50851;SDS011;43953;45.508;-122.806;2022-10-04T03:04:55;9.05;;;6.47;;
50851;SDS011;43953;45.508;-122.806;2022-10-04T03:05:34;8.90;;;7.13;;
50851;SDS011;43953;45.508;-122.806;2022-10-04T03:06:09;9.35;;;6.65;;
50851;SDS011;43953;45.508;-122.806;2022-10-04T03:06:47;9.52;;;6.88;;
50851;SDS011;43953;45.508;-122.806;2022-10-04T03:07:20;7.57;;;6.57;;
50851;SDS011;43953;45.508;-122.806;2022-10-04T03:07:53;7.93;;;6.35;;
50851;SDS011;43953;45.508;-122.806;2022-10-04T03:08:27;8.10;;;6.40;;
50851;SDS011;43953;45.508;-122.806;2022-10-04T03:09:02;7.75;;;6.88;;
50851;SDS011;43953;45.508;-122.806;2022-10-04T03:09:35;8.55;;;7.03;;
50851;SDS011;43953;45.508;-122.806;2022-10-04T03:10:11;7.88;;;6.72;;
50851;SDS011;43953;45.508;-122.806;2022-10-04T03:10:44;9.73;;;6.65;;
50851;SDS011;43953;45.508;-122.806;2022-10-04T03:11:17;11.85;;;7.57;;
50851;SDS011;43953;45.508;-122.806;2022-10-04T03:11:52;7.72;;;6.40;;
50851;SDS011;43953;45.508;-122.806;2022-10-04T03:12:26;7.55;;;6.85;;
50851;SDS011;43953;45.508;-122.806;2022-10-04T03:12:57;12.60;;;7.35;;
50851;SDS011;43953;45.508;-122.806;2022-10-04T03:13:29;10.70;;;6.82;;
50851;SDS011;43953;45.508;-122.806;2022-10-04T03:14:03;8.15;;;6.55;;
50851;SDS011;43953;45.508;-122.806;2022-10-04T03:14:40;10.73;;;6.97;;
50851;SDS011;43953;45.508;-122.806;2022-10-04T03:15:12;11.32;;;6.93;;
50851;SDS011;43953;45.508;-122.806;2022-10-04T03:15:45;16.98;;;7.20;;
50851;SDS011;43953;45.508;-122.806;2022-10-04T03:16:19;9.80;;;6.53;;
50851;SDS011;43953;45.508;-122.806;2022-10-04T03:16:52;10.18;;;7.10;;
50851;SDS011;43953;45.508;-122.806;2022-10-04T03:17:30;10.10;;;6.80;;
50851;SDS011;43953;45.508;-122.806;2022-10-04T03:18:02;12.27;;;7.22;;
50851;SDS011;43953;45.508;-122.806;2022-10-04T03:18:34;9.77;;;6.78;;
50851;SDS011;43953;45.508;-122.806;2022-10-04T03:19:07;9.95;;;6.45;;
50851;SDS011;43953;45.508;-122.806;2022-10-04T03:19:41;12.07;;;6.85;;
50851;SDS011;43953;45.508;-122.806;2022-10-04T03:20:13;9.55;;;7.32;;
50851;SDS011;43953;45.508;-122.806;2022-10-04T03:20:50;8.88;;;6.20;;
50851;SDS011;43953;45.508;-122.806;2022-10-04T03:21:22;10.85;;;7.25;;
50851;SDS011;43953;45.508;-122.806;2022-10-04T03:22:00;7.93;;;6.57;;
50851;SDS011;43953;45.508;-122.806;2022-10-04T03:22:37;8.65;;;6.68;;
50851;SDS011;43953;45.508;-122.806;2022-10-04T03:23:09;7.65;;;6.57;;
50851;SDS011;43953;45.508;-122.806;2022-10-04T03:23:43;8.25;;;6.95;;
50851;SDS011;43953;45.508;-122.806;2022-10-04T03:24:19;8.20;;;6.53;;
50851;SDS011;43953;45.508;-122.806;2022-10-04T03:24:57;9.13;;;6.72;;
50851;SDS011;43953;45.508;-122.806;2022-10-04T03:25:34;8.13;;;6.70;;
50851;SDS011;43953;45.508;-122.806;2022-10-04T03:26:35;10.25;;;6.28;;
50851;SDS011;43953;45.508;-122.806;2022-10-04T03:27:18;12.85;;;7.43;;
50851;SDS011;43953;45.508;-122.806;2022-10-04T03:27:52;11.77;;;7.15;;
50851;SDS011;43953;45.508;-122.806;2022-10-04T03:28:27;9.43;;;7.03;;
50851;SDS011;43953;45.508;-122.806;2022-10-04T03:28:59;9.23;;;6.28;;
50851;SDS011;43953;45.508;-122.806;2022-10-04T03:29:32;9.85;;;7.05;;
50851;SDS011;43953;45.508;-122.806;2022-10-04T03:30:13;9.55;;;6.38;;
50851;SDS011;43953;45.508;-122.806;2022-10-04T03:30:46;9.00;;;6.93;;
50851;SDS011;43953;45.508;-122.806;2022-10-04T03:31:18;10.40;;;6.63;;
50851;SDS011;43953;45.508;-122.806;2022-10-04T03:31:51;9.95;;;6.60;;
50851;SDS011;43953;45.508;-122.806;2022-10-04T03:32:28;8.23;;;6.30;;
50851;SDS011;43953;45.508;-122.806;2022-10-04T03:33:01;8.75;;;6.70;;
50851;SDS011;43953;45.508;-122.806;2022-10-04T03:33:33;8.48;;;6.40;;
50851;SDS011;43953;45.508;-122.806;2022-10-04T03:34:09;11.70;;;6.53;;
50851;SDS011;43953;45.508;-122.806;2022-10-04T03:34:51;9.10;;;6.45;;
50851;SDS011;43953;45.508;-122.806;2022-10-04T03:35:34;8.50;;;6.55;;
50851;SDS011;43953;45.508;-122.806;2022-10-04T03:36:11;8.25;;;6.55;;
50851;SDS011;43953;45.508;-122.806;2022-10-04T03:36:49;7.82;;;6.15;;
50851;SDS011;43953;45.508;-122.806;2022-10-04T03:37:29;11.27;;;6.50;;
50851;SDS011;43953;45.508;-122.806;2022-10-04T03:38:05;8.38;;;6.32;;
50851;SDS011;43953;45.508;-122.806;2022-10-04T03:38:41;9.73;;;6.32;;
50851;SDS011;43953;45.508;-122.806;2022-10-04T03:39:31;8.20;;;6.35;;
50851;SDS011;43953;45.508;-122.806;2022-10-04T03:40:07;7.65;;;6.78;;
50851;SDS011;43953;45.508;-122.806;2022-10-04T03:40:41;9.13;;;7.28;;
50851;SDS011;43953;45.508;-122.806;2022-10-04T03:41:21;12.35;;;7.90;;
50851;SDS011;43953;45.508;-122.806;2022-10-04T03:41:55;8.40;;;7.20;;
50851;SDS011;43953;45.508;-122.806;2022-10-04T03:42:29;10.52;;;6.75;;
50851;SDS011;43953;45.508;-122.806;2022-10-04T03:43:04;8.57;;;6.60;;
50851;SDS011;43953;45.508;-122.806;2022-10-04T03:43:37;10.60;;;6.65;;
50851;SDS011;43953;45.508;-122.806;2022-10-04T03:44:15;11.02;;;6.45;;
50851;SDS011;43953;45.508;-122.806;2022-10-04T03:44:56;8.73;;;6.63;;
50851;SDS011;43953;45.508;-122.806;2022-10-04T03:45:32;8.02;;;6.68;;
50851;SDS011;43953;45.508;-122.806;2022-10-04T03:46:04;8.68;;;6.63;;
50851;SDS011;43953;45.508;-122.806;2022-10-04T03:46:39;10.43;;;6.80;;
50851;SDS011;43953;45.508;-122.806;2022-10-04T03:47:18;10.10;;;6.93;;
50851;SDS011;43953;45.508;-122.806;2022-10-04T03:48:02;10.27;;;6.93;;
50851;SDS011;43953;45.508;-122.806;2022-10-04T03:48:44;9.65;;;6.60;;
50851;SDS011;43953;45.508;-122.806;2022-10-04T03:49:24;7.07;;;6.03;;
50851;SDS011;43953;45.508;-122.806;2022-10-04T03:50:09;7.22;;;6.38;;
50851;SDS011;43953;45.508;-122.806;2022-10-04T03:50:47;10.45;;;6.25;;
50851;SDS011;43953;45.508;-122.806;2022-10-04T03:51:23;9.18;;;6.55;;
50851;SDS011;43953;45.508;-122.806;2022-10-04T03:51:56;12.65;;;6.10;;
50851;SDS011;43953;45.508;-122.806;2022-10-04T03:52:30;8.95;;;6.25;;
50851;SDS011;43953;45.508;-122.806;2022-10-04T03:53:27;6.90;;;6.10;;
50851;SDS011;43953;45.508;-122.806;2022-10-04T03:54:00;6.20;;;5.53;;
50851;SDS011;43953;45.508;-122.806;2022-10-04T03:54:32;7.93;;;6.60;;
50851;SDS011;43953;45.508;-122.806;2022-10-04T03:55:06;6.47;;;5.68;;
50851;SDS011;43953;45.508;-122.806;2022-10-04T03:55:39;8.50;;;6.13;;
50851;SDS011;43953;45.508;-122.806;2022-10-04T03:56:33;9.00;;;6.13;;
50851;SDS011;43953;45.508;-122.806;2022-10-04T03:57:06;7.13;;;6.40;;
50851;SDS011;43953;45.508;-122.806;2022-10-04T03:57:39;7.20;;;5.80;;
50851;SDS011;43953;45.508;-122.806;2022-10-04T03:58:13;7.65;;;6.05;;
50851;SDS011;43953;45.508;-122.806;2022-10-04T03:58:48;6.85;;;5.93;;
50851;SDS011;43953;45.508;-122.806;2022-10-04T03:59:22;7.75;;;5.75;;
50851;SDS011;43953;45.508;-122.806;2022-10-04T03:59:56;10.55;;;6.30;;
50851;SDS011;43953;45.508;-122.806;2022-10-04T04:00:30;7.22;;;6.53;;
50851;SDS011;43953;45.508;-122.806;2022-10-04T04:03:27;9.13;;;6.07;;
50851;SDS011;43953;45.508;-122.806;2022-10-04T04:04:10;12.02;;;6.38;;
50851;SDS011;43953;45.508;-122.806;2022-10-04T04:05:49;6.75;;;6.00;;
50851;SDS011;43953;45.508;-122.806;2022-10-04T04:06:24;8.85;;;6.18;;
50851;SDS011;43953;45.508;-122.806;2022-10-04T04:08:33;6.45;;;5.60;;
50851;SDS011;43953;45.508;-122.806;2022-10-04T04:09:13;6.32;;;5.47;;
50851;SDS011;43953;45.508;-122.806;2022-10-04T04:10:33;6.78;;;6.03;;
50851;SDS011;43953;45.508;-122.806;2022-10-04T04:11:13;9.68;;;5.95;;
50851;SDS011;43953;45.508;-122.806;2022-10-04T04:11:49;8.35;;;6.07;;
50851;SDS011;43953;45.508;-122.806;2022-10-04T04:13:28;7.93;;;6.30;;
50851;SDS011;43953;45.508;-122.806;2022-10-04T04:14:07;7.43;;;5.97;;
50851;SDS011;43953;45.508;-122.806;2022-10-04T04:14:44;7.38;;;6.30;;
50851;SDS011;43953;45.508;-122.806;2022-10-04T04:15:21;6.70;;;6.03;;
50851;SDS011;43953;45.508;-122.806;2022-10-04T04:15:58;9.82;;;6.63;;
50851;SDS011;43953;45.508;-122.806;2022-10-04T04:16:31;7.65;;;6.32;;
50851;SDS011;43953;45.508;-122.806;2022-10-04T04:17:17;9.40;;;5.90;;
50851;SDS011;43953;45.508;-122.806;2022-10-04T04:17:50;8.43;;;6.80;;
50851;SDS011;43953;45.508;-122.806;2022-10-04T04:18:26;9.90;;;6.90;;
50851;SDS011;43953;45.508;-122.806;2022-10-04T04:19:10;11.10;;;6.57;;
50851;SDS011;43953;45.508;-122.806;2022-10-04T04:19:43;13.63;;;6.93;;
50851;SDS011;43953;45.508;-122.806;2022-10-04T04:20:27;10.70;;;6.65;;
50851;SDS011;43953;45.508;-122.806;2022-10-04T04:21:04;7.70;;;6.78;;
50851;SDS011;43953;45.508;-122.806;2022-10-04T04:21:37;7.32;;;6.57;;
50851;SDS011;43953;45.508;-122.806;2022-10-04T04:22:11;8.43;;;6.53;;
50851;SDS011;43953;45.508;-122.806;2022-10-04T04:23:00;8.48;;;7.38;;